Time;durP1;ratioP1;P1;durP2;ratioP2;P2;SDS_P1;SDS_P2;PMS_P1;PMS_P2;Temp;Humidity;BMP_temperature;BMP_pressure;BME280_temperature;BME280_humidity;BME280_pressure;Samples;Min_cycle;Max_cycle;Signal;HPM_P1;HPM_P2
2022/03/17 00:02:45;;;;;;;12.68;5.88;;;;;;;-19.21;50.42;98495.38;6399293;27;20416;-65
2022/03/17 00:05:47;;;;;;;11.85;6.30;;;;;;;-19.19;50.47;98503.84;6398773;27;20049;-63
2022/03/17 00:08:51;;;;;;;10.82;5.25;;;;;;;-19.41;50.86;98485.44;6399097;27;20055;-63
2022/03/17 00:12:03;;;;;;;12.32;5.40;;;;;;;-19.28;51.66;98499.00;6400070;27;20046;-63
2022/03/17 00:15:08;;;;;;;11.98;5.63;;;;;;;-19.30;52.45;98499.66;6399943;27;20043;-63
2022/03/17 00:18:09;;;;;;;11.75;6.13;;;;;;;-19.33;52.58;98499.41;6398838;27;20066;-63
2022/03/17 00:21:14;;;;;;;11.35;4.63;;;;;;;-19.27;51.81;98504.94;6399688;27;20039;-64
2022/03/17 00:24:17;;;;;;;8.55;5.20;;;;;;;-19.32;51.92;98502.06;6398440;27;20057;-63
2022/03/17 00:27:21;;;;;;;10.23;4.85;;;;;;;-19.25;51.05;98508.41;6399253;27;20047;-63
2022/03/17 00:30:22;;;;;;;9.15;4.50;;;;;;;-19.25;51.90;98498.38;6398565;27;20043;-63
2022/03/17 00:33:26;;;;;;;10.18;4.97;;;;;;;-19.21;52.05;98499.50;6399632;27;20039;-64
2022/03/17 00:36:30;;;;;;;;;;;;;;;-19.17;52.90;98497.31;6381948;27;20051;-63
2022/03/17 00:39:33;;;;;;;6.10;4.40;;;;;;;-19.19;52.26;98488.81;6399379;27;19919;-63
2022/03/17 00:42:39;;;;;;;9.93;6.15;;;;;;;-19.25;52.90;98485.84;6398874;27;20069;-62
2022/03/17 00:45:44;;;;;;;13.68;6.55;;;;;;;-19.23;52.47;98486.84;6399346;27;20049;-63
2022/03/17 00:48:48;;;;;;;15.35;5.68;;;;;;;-19.22;52.43;98490.22;6397609;27;20047;-63
2022/03/17 00:51:51;;;;;;;;;;;;;;;-19.20;53.95;98481.19;6398154;27;20522;-64
2022/03/17 00:54:52;;;;;;;11.57;5.50;;;;;;;-19.27;52.75;98484.88;6398037;27;20413;-63
2022/03/17 00:57:56;;;;;;;;;;;;;;;-19.29;53.49;98476.34;6399453;27;20047;-64
2022/03/17 01:01:00;;;;;;;11.07;6.35;;;;;;;-19.37;52.03;98475.75;6398323;27;20302;-63
2022/03/17 01:04:01;;;;;;;7.40;4.68;;;;;;;-19.39;52.29;98479.75;6398258;27;20042;-63
2022/03/17 01:07:03;;;;;;;14.98;5.85;;;;;;;-19.40;52.45;98477.16;6397797;27;20050;-64
2022/03/17 01:10:06;;;;;;;18.88;6.53;;;;;;;-19.39;52.45;98481.41;6397660;27;20042;-63
2022/03/17 01:13:08;;;;;;;14.68;5.60;;;;;;;-19.39;52.58;98463.84;6398006;27;20051;-64
2022/03/17 01:16:10;;;;;;;12.77;5.63;;;;;;;-19.40;52.13;98465.50;6397797;27;20511;-65
2022/03/17 01:19:14;;;;;;;11.00;6.93;;;;;;;-19.41;52.75;98465.41;6398271;27;20043;-64
2022/03/17 01:22:16;;;;;;;25.75;8.15;;;;;;;-19.40;53.66;98455.47;6397385;27;20042;-63
2022/03/17 01:25:20;;;;;;;18.20;5.23;;;;;;;-19.37;53.45;98457.34;6396899;27;20050;-63
2022/03/17 01:28:22;;;;;;;19.50;7.20;;;;;;;-19.37;53.21;98459.84;6397012;27;20057;-63
2022/03/17 01:31:23;;;;;;;12.70;7.03;;;;;;;-19.36;53.44;98449.03;6379166;27;20051;-62
2022/03/17 01:34:28;;;;;;;14.32;6.68;;;;;;;-19.37;53.69;98445.66;6397272;27;20057;-64
2022/03/17 01:37:29;;;;;;;18.23;7.43;;;;;;;-19.40;53.23;98440.41;6396768;27;20493;-64
2022/03/17 01:40:33;;;;;;;26.83;8.20;;;;;;;-19.39;53.58;98443.78;6396620;27;20068;-63
2022/03/17 01:43:35;;;;;;;15.05;6.93;;;;;;;-19.46;53.24;98441.59;6397093;27;20043;-64
2022/03/17 01:50:01;;;;;;;11.40;5.40;;;;;;;-19.64;51.74;98436.94;6396969;27;20054;-65
2022/03/17 01:53:04;;;;;;;8.38;6.47;;;;;;;-19.81;51.92;98427.25;6396638;27;20051;-63
2022/03/17 01:56:07;;;;;;;16.63;7.00;;;;;;;-19.89;51.74;98433.34;6396101;27;20423;-65
2022/03/17 01:59:11;;;;;;;16.52;8.45;;;;;;;-19.96;51.41;98436.97;6396211;27;20058;-64
2022/03/17 02:02:12;;;;;;;17.02;8.80;;;;;;;-20.02;51.16;98439.88;6396153;27;20066;-64
2022/03/17 02:05:14;;;;;;;14.60;9.50;;;;;;;-20.09;51.51;98440.16;6395188;27;20427;-64
2022/03/17 02:08:15;;;;;;;26.80;16.60;;;;;;;-20.10;51.93;98443.41;6395688;27;20050;-64
2022/03/17 02:14:50;;;;;;;15.32;6.07;;;;;;;-20.08;51.90;98436.88;6396121;27;20054;-63
2022/03/17 02:17:52;;;;;;;16.48;8.32;;;;;;;-20.11;52.62;98436.66;6396414;27;20047;-64
2022/03/17 02:20:59;;;;;;;9.55;6.63;;;;;;;-20.01;52.51;98431.63;6397059;27;20047;-63
2022/03/17 02:27:20;;;;;;;15.13;9.80;;;;;;;-20.00;51.03;98430.84;6395934;27;20051;-64
2022/03/17 02:30:24;;;;;;;16.58;8.43;;;;;;;-20.01;51.19;98424.09;6395791;27;20054;-64
2022/03/17 02:33:28;;;;;;;20.63;8.82;;;;;;;-20.00;51.08;98420.84;6396776;27;20424;-64
2022/03/17 02:36:29;;;;;;;12.70;7.07;;;;;;;-19.91;50.43;98424.81;6395474;27;20046;-63
2022/03/17 02:39:31;;;;;;;14.35;6.38;;;;;;;-19.90;50.79;98427.41;6396432;27;20053;-64
2022/03/17 02:42:33;;;;;;;11.20;4.95;;;;;;;-19.92;50.02;98425.53;6396189;27;20046;-63
2022/03/17 02:45:35;;;;;;;19.42;8.02;;;;;;;-19.96;50.21;98422.81;6395531;27;20051;-64
2022/03/17 02:48:36;;;;;;;11.63;6.53;;;;;;;-19.92;49.74;98428.06;6395348;27;20423;-64
2022/03/17 02:51:38;;;;;;;17.00;8.48;;;;;;;-20.01;49.94;98398.16;6395285;27;20164;-63
2022/03/17 02:54:42;;;;;;;17.00;7.15;;;;;;;-19.77;49.21;98429.25;6377665;27;20130;-64
2022/03/17 02:57:46;;;;;;;15.13;8.23;;;;;;;-19.75;49.26;98433.63;6396317;27;20412;-65
2022/03/17 03:00:48;;;;;;;16.85;10.38;;;;;;;-19.71;49.35;98427.22;6395193;27;20430;-64
2022/03/17 03:03:52;;;;;;;18.25;9.48;;;;;;;-19.63;48.74;98428.66;6395256;27;20051;-64
2022/03/17 03:06:53;;;;;;;11.57;6.25;;;;;;;-19.49;48.91;98418.03;6394878;27;20461;-64
2022/03/17 03:09:55;;;;;;;8.60;5.97;;;;;;;-19.43;49.01;98426.78;6395529;27;20053;-64
2022/03/17 03:13:02;;;;;;;11.43;7.07;;;;;;;-19.40;48.47;98427.00;6396214;27;20419;-64
2022/03/17 03:16:06;;;;;;;10.38;6.78;;;;;;;-19.37;48.30;98423.09;6396263;27;20039;-64
2022/03/17 03:19:07;;;;;;;18.08;8.52;;;;;;;-19.31;48.40;98427.69;6399987;27;20051;-63
2022/03/17 03:22:09;;;;;;;17.15;10.55;;;;;;;-19.31;47.95;98427.69;6400086;27;20042;-63
2022/03/17 03:25:10;;;;;;;18.17;9.40;;;;;;;-19.17;48.10;98437.13;6381745;27;20053;-63
2022/03/17 03:28:12;;;;;;;22.58;12.07;;;;;;;-19.24;47.78;98409.84;6400134;27;20514;-63
2022/03/17 03:31:13;;;;;;;29.52;12.45;;;;;;;-18.98;48.57;98438.53;6400017;27;20053;-63
2022/03/17 03:34:15;;;;;;;26.80;12.35;;;;;;;-18.87;48.16;98437.69;6400353;27;20046;-63
2022/03/17 03:37:25;;;;;;;37.53;15.05;;;;;;;-18.75;48.21;98433.56;6399819;27;20064;-64
2022/03/17 03:40:27;;;;;;;29.40;12.52;;;;;;;-18.64;47.94;98437.69;6399582;27;20050;-64
2022/03/17 03:43:28;;;;;;;22.75;11.27;;;;;;;-18.52;47.27;98436.84;6400289;27;20107;-64
2022/03/17 03:46:32;;;;;;;28.42;12.18;;;;;;;-18.36;47.47;98445.59;6399287;27;20042;-63
2022/03/17 03:49:39;;;;;;;;;;;;;;;-18.19;47.66;98444.28;6399399;27;20051;-64
2022/03/17 03:52:40;;;;;;;24.95;12.15;;;;;;;-18.04;47.14;98441.09;6399565;27;19915;-63
2022/03/17 03:55:41;;;;;;;41.00;11.68;;;;;;;-17.88;46.51;98446.47;6380822;27;20074;-64
2022/03/17 03:58:42;;;;;;;27.63;14.05;;;;;;;-17.74;47.02;98449.91;6399258;27;20138;-64
2022/03/17 04:01:54;;;;;;;51.15;22.27;;;;;;;-17.48;46.81;98456.75;6399917;27;20038;-63
2022/03/17 04:04:59;;;;;;;36.35;16.85;;;;;;;-17.25;47.23;98449.13;6398926;27;20352;-64
2022/03/17 04:08:01;;;;;;;37.80;18.52;;;;;;;-17.10;47.92;98424.09;6397908;27;20042;-64
2022/03/17 04:11:02;;;;;;;29.40;15.15;;;;;;;-16.75;47.87;98441.53;6397689;27;20058;-64
2022/03/17 04:14:03;;;;;;;40.20;20.27;;;;;;;-16.50;47.99;98435.56;6398667;27;20407;-65
2022/03/17 04:17:05;;;;;;;32.10;18.33;;;;;;;-16.24;48.11;98431.38;6398450;27;20423;-64
2022/03/17 04:20:08;;;;;;;25.70;12.75;;;;;;;-16.01;48.79;98427.78;6398761;27;20046;-65
2022/03/17 04:23:09;;;;;;;23.65;10.20;;;;;;;-15.76;48.32;98436.09;6398199;27;20050;-65
2022/03/17 04:26:11;;;;;;;26.10;10.50;;;;;;;-15.53;48.15;98429.91;6399104;27;20050;-65
2022/03/17 04:29:13;;;;;;;23.17;9.30;;;;;;;-15.33;47.90;98428.59;6398110;27;20564;-64
2022/03/17 04:32:17;;;;;;;17.45;9.10;;;;;;;-15.15;48.12;98433.88;6398413;27;20419;-64
2022/03/17 04:35:19;;;;;;;18.92;8.25;;;;;;;-14.94;48.05;98425.06;6398236;27;20583;-64
2022/03/17 04:38:25;;;;;;;18.58;10.05;;;;;;;-14.70;48.27;98424.75;6399637;27;20508;-64
2022/03/17 04:41:27;;;;;;;16.35;7.93;;;;;;;-14.43;47.85;98425.44;6398402;27;20042;-63
2022/03/17 04:44:30;;;;;;;;;;;;;;;-14.18;49.23;98421.75;6399722;27;20039;-63
2022/03/17 04:47:31;;;;;;;26.38;10.68;;;;;;;-14.03;48.36;98423.50;6398042;27;19919;-63
2022/03/17 04:50:38;;;;;;;21.08;9.80;;;;;;;-13.83;48.11;98423.75;6398437;27;20047;-64
2022/03/17 04:53:44;;;;;;;20.30;9.93;;;;;;;-13.69;47.41;98422.81;6398907;27;20122;-63
2022/03/17 04:56:45;;;;;;;;;;;;;;;-13.41;47.69;98436.97;6398189;27;20050;-64
2022/03/17 04:59:46;;;;;;;22.60;9.73;;;;;;;-13.24;46.50;98427.72;6397803;27;19926;-63
2022/03/17 05:02:51;;;;;;;19.60;8.48;;;;;;;-13.07;46.26;98431.13;6397762;27;20042;-64
2022/03/17 05:05:54;;;;;;;15.70;8.05;;;;;;;-12.92;46.87;98425.19;6398168;27;20052;-65
2022/03/17 05:08:55;;;;;;;;;;;;;;;-12.71;46.39;98415.28;6398083;27;20276;-64
2022/03/17 05:11:59;;;;;;;25.67;10.38;;;;;;;-12.51;45.58;98412.84;6397451;27;20407;-64
2022/03/17 05:15:01;;;;;;;38.65;13.20;;;;;;;-12.23;46.18;98415.97;6398275;27;20407;-63
2022/03/17 05:18:06;;;;;;;26.35;11.95;;;;;;;-11.98;45.70;98407.00;6397066;27;20061;-63
2022/03/17 05:21:08;;;;;;;31.58;13.27;;;;;;;-11.83;45.27;98399.19;6397271;27;20047;-64
2022/03/17 05:24:09;;;;;;;40.40;13.80;;;;;;;-11.58;45.51;98406.28;6396931;27;20053;-63
2022/03/17 05:27:10;;;;;;;30.60;13.27;;;;;;;-11.28;45.09;98408.50;6397611;27;21145;-63
2022/03/17 05:30:16;;;;;;;42.38;16.00;;;;;;;-10.93;45.34;98407.50;6397080;27;20050;-63
2022/03/17 05:33:21;;;;;;;56.35;20.38;;;;;;;-10.46;44.73;98401.91;6379094;27;20042;-64
2022/03/17 05:36:25;;;;;;;69.20;24.00;;;;;;;-9.90;43.88;98399.06;6397001;27;20050;-64
2022/03/17 05:39:30;;;;;;;73.97;23.58;;;;;;;-9.46;43.65;98402.44;6396909;27;20054;-64
2022/03/17 05:42:36;;;;;;;97.03;29.23;;;;;;;-9.04;43.08;98405.72;6397059;27;20043;-64
2022/03/17 05:45:41;;;;;;;100.00;30.05;;;;;;;-8.67;42.16;98405.34;6397042;27;20047;-63
2022/03/17 05:48:44;;;;;;;95.28;31.25;;;;;;;-5.03;38.78;98408.75;6397619;27;20046;-64
2022/03/17 05:51:50;;;;;;;82.20;29.52;;;;;;;0.60;30.44;98405.97;6397704;27;20039;-64
2022/03/17 05:54:56;;;;;;;73.05;27.58;;;;;;;5.10;25.05;98415.59;6397597;27;20125;-64
2022/03/17 05:58:01;;;;;;;56.75;23.13;;;;;;;8.31;23.29;98413.81;6397260;27;20147;-64
2022/03/17 06:01:03;;;;;;;48.75;22.55;;;;;;;10.64;21.33;98415.19;6396609;27;20515;-64
2022/03/17 06:04:04;;;;;;;60.08;26.60;;;;;;;13.07;18.70;98408.56;6396494;27;20047;-64
2022/03/17 06:07:10;;;;;;;51.58;25.48;;;;;;;14.74;16.71;98412.03;6396606;27;20050;-64
2022/03/17 06:10:15;;;;;;;40.63;23.48;;;;;;;16.74;15.57;98411.31;6396824;27;20050;-64
2022/03/17 06:13:18;;;;;;;40.03;20.42;;;;;;;18.23;13.96;98399.38;6396078;27;20524;-64
2022/03/17 06:16:23;;;;;;;30.88;15.95;;;;;;;19.21;13.50;98393.97;6397034;27;20047;-64
2022/03/17 06:19:29;;;;;;;26.08;12.40;;;;;;;20.41;12.25;98388.16;6397014;27;20038;-63
2022/03/17 06:22:33;;;;;;;22.70;12.48;;;;;;;21.63;11.26;98385.13;6396901;27;20035;-64
2022/03/17 06:25:37;;;;;;;26.58;11.50;;;;;;;21.86;10.52;98388.50;6396931;27;20531;-63
2022/03/17 06:28:38;;;;;;;23.20;11.23;;;;;;;22.01;10.21;98385.47;6396197;27;20058;-64
2022/03/17 06:31:40;;;;;;;28.73;12.25;;;;;;;22.35;9.51;98389.56;6395689;27;20054;-64
2022/03/17 06:34:41;;;;;;;26.08;13.57;;;;;;;22.61;9.04;98378.31;6396140;27;20047;-64
2022/03/17 06:37:48;;;;;;;28.13;12.77;;;;;;;23.47;8.40;98373.16;6396235;27;20415;-63
2022/03/17 06:40:50;;;;;;;24.27;13.77;;;;;;;24.72;7.98;98376.34;6396346;27;20058;-63
2022/03/17 06:43:56;;;;;;;25.15;11.85;;;;;;;25.50;7.59;98378.41;6396561;27;20046;-63
2022/03/17 06:47:02;;;;;;;24.38;11.73;;;;;;;26.26;7.43;98375.00;6397509;27;20039;-63
2022/03/17 06:50:04;;;;;;;18.10;9.13;;;;;;;26.78;6.75;98366.75;6395729;27;20054;-64
2022/03/17 06:53:06;;;;;;;20.10;9.95;;;;;;;27.09;6.38;98361.56;6398812;27;20054;-63
2022/03/17 06:56:12;;;;;;;17.33;9.55;;;;;;;27.51;6.41;98362.41;6400261;27;20063;-64
2022/03/17 06:59:16;;;;;;;21.10;10.07;;;;;;;27.64;5.86;98360.03;6400655;27;20134;-63
2022/03/17 07:02:18;;;;;;;18.08;9.05;;;;;;;27.53;6.02;98360.38;6400611;27;20038;-63
2022/03/17 07:05:24;;;;;;;17.30;8.80;;;;;;;27.90;5.90;98359.00;6401352;27;20061;-64
2022/03/17 07:08:31;;;;;;;15.50;8.73;;;;;;;28.26;5.70;98358.53;6400983;27;20051;-64
2022/03/17 07:11:32;;;;;;;21.08;9.30;;;;;;;28.61;5.56;98358.03;6400404;27;20047;-64
2022/03/17 07:14:34;;;;;;;19.52;9.27;;;;;;;28.79;5.45;98354.19;6400358;27;20041;-63
2022/03/17 07:17:39;;;;;;;18.05;9.23;;;;;;;28.95;5.21;98359.53;6401271;27;20038;-63
2022/03/17 07:20:41;;;;;;;19.83;9.45;;;;;;;29.25;5.09;98354.25;6400310;27;20046;-64
2022/03/17 07:23:48;;;;;;;18.55;8.50;;;;;;;29.47;5.01;98347.97;6400881;27;20057;-64
2022/03/17 07:26:52;;;;;;;22.27;9.63;;;;;;;29.42;4.75;98339.53;6400175;27;20511;-63
2022/03/17 07:29:56;;;;;;;39.63;24.30;;;;;;;29.09;5.09;98328.94;6401031;27;20054;-63
2022/03/17 07:33:01;;;;;;;60.80;33.15;;;;;;;28.86;5.09;98317.25;6399473;27;20051;-64
2022/03/17 07:36:06;;;;;;;50.17;32.08;;;;;;;28.13;5.09;98308.50;6400127;27;20129;-62
2022/03/17 07:39:07;;;;;;;48.90;31.33;;;;;;;28.26;5.00;98316.06;6381654;27;20538;-63
2022/03/17 07:42:11;;;;;;;52.28;28.85;;;;;;;28.74;5.03;98316.00;6400346;27;20133;-64
2022/03/17 07:45:15;;;;;;;31.75;15.70;;;;;;;29.52;4.74;98306.72;6400700;27;20404;-63
2022/03/17 07:48:20;;;;;;;24.33;11.43;;;;;;;30.25;4.35;98317.81;6400626;27;20045;-65
2022/03/17 07:51:25;;;;;;;18.33;9.40;;;;;;;30.72;4.29;98311.88;6399614;27;20049;-63
2022/03/17 07:54:29;;;;;;;14.48;6.90;;;;;;;31.10;3.94;98300.78;6400324;27;20042;-63
2022/03/17 07:57:37;;;;;;;14.65;7.43;;;;;;;31.24;3.87;98299.84;6400739;27;20121;-65
2022/03/17 08:00:42;;;;;;;11.82;6.35;;;;;;;31.76;4.34;98290.41;6400047;27;20138;-64
2022/03/17 08:03:46;;;;;;;13.20;5.78;;;;;;;31.96;3.89;98297.88;6398940;27;20046;-64
2022/03/17 08:06:50;;;;;;;8.73;5.07;;;;;;;32.12;3.61;98289.34;6398901;27;20452;-63
2022/03/17 08:09:54;;;;;;;15.23;6.68;;;;;;;32.28;3.94;98276.44;6398831;27;20046;-64
2022/03/17 08:13:00;;;;;;;16.15;6.53;;;;;;;32.64;3.45;98276.13;6399874;27;20038;-64
2022/03/17 08:16:10;;;;;;;15.00;7.35;;;;;;;32.86;3.37;98282.25;6399404;27;20043;-64
2022/03/17 08:19:14;;;;;;;15.05;6.97;;;;;;;32.91;3.16;98266.13;6398087;27;20138;-63
2022/03/17 08:22:18;;;;;;;12.55;6.03;;;;;;;33.08;3.61;98266.59;6398582;27;20185;-63
2022/03/17 08:25:24;;;;;;;13.80;5.85;;;;;;;33.08;3.36;98272.88;6399307;27;20039;-64
2022/03/17 08:28:28;;;;;;;16.23;7.70;;;;;;;33.02;3.54;98261.97;6399295;27;20042;-64
2022/03/17 08:35:36;;;;;;;10.20;5.13;;;;;;;32.77;3.77;98248.06;6373476;27;20047;-63
2022/03/17 08:38:40;;;;;;;9.23;5.20;;;;;;;32.75;3.49;98252.88;6372556;27;20058;-64
2022/03/17 08:41:45;;;;;;;13.23;7.60;;;;;;;32.66;3.75;98257.69;6372417;27;20054;-64
2022/03/17 08:44:51;;;;;;;10.93;5.95;;;;;;;32.67;3.07;98242.19;6373041;27;20059;-64
2022/03/17 08:51:19;;;;;;;13.10;4.78;;;;;;;32.76;2.98;98235.50;6372132;27;20057;-63
2022/03/17 08:54:25;;;;;;;6.85;4.50;;;;;;;32.62;3.12;98240.94;6373096;27;20043;-63
2022/03/17 08:57:26;;;;;;;10.90;5.18;;;;;;;32.62;3.12;98232.75;6371535;27;20049;-64
2022/03/17 09:00:30;;;;;;;11.68;5.65;;;;;;;32.33;2.81;98224.91;6371526;27;20441;-64
2022/03/17 09:03:37;;;;;;;13.57;5.78;;;;;;;31.77;3.46;98215.88;6372351;27;20051;-64
2022/03/17 09:06:44;;;;;;;9.70;5.00;;;;;;;31.99;3.10;98215.81;6353285;27;20054;-63
2022/03/17 09:09:45;;;;;;;6.57;4.30;;;;;;;32.12;2.80;98213.13;6372101;27;20047;-64
2022/03/17 09:12:46;;;;;;;7.13;4.40;;;;;;;31.19;3.33;98188.09;6371835;27;20043;-64
2022/03/17 09:15:51;;;;;;;7.57;4.45;;;;;;;30.47;3.29;98197.31;6371506;27;20047;-63
2022/03/17 09:18:57;;;;;;;7.43;4.05;;;;;;;30.38;3.71;98193.91;6371247;27;20055;-64
2022/03/17 09:22:03;;;;;;;7.20;4.63;;;;;;;30.31;3.29;98190.25;6372483;27;20450;-63
2022/03/17 09:25:06;;;;;;;8.27;4.28;;;;;;;30.27;3.59;98186.25;6372476;27;20123;-63
2022/03/17 09:28:08;;;;;;;6.70;4.05;;;;;;;30.21;3.68;98187.00;6372166;27;20420;-64
2022/03/17 09:31:09;;;;;;;9.57;3.72;;;;;;;29.97;3.83;98178.16;6372456;27;20039;-64
2022/03/17 09:34:12;;;;;;;8.15;3.83;;;;;;;29.62;3.90;98176.25;6371764;27;20053;-63
2022/03/17 09:37:14;;;;;;;;;;;;;;;31.25;3.84;98176.47;6371297;27;20130;-64
2022/03/17 09:40:18;;;;;;;7.85;3.55;;;;;;;29.75;3.79;98173.72;6371345;27;19933;-63
2022/03/17 09:43:22;;;;;;;6.07;3.05;;;;;;;28.72;3.92;98179.91;6370565;27;20427;-63
2022/03/17 09:46:31;;;;;;;4.03;2.70;;;;;;;27.10;4.91;98162.47;6371873;27;20050;-64
2022/03/17 09:49:35;;;;;;;8.30;3.00;;;;;;;26.92;4.78;98151.03;6371222;27;20047;-64
2022/03/17 09:52:44;;;;;;;4.63;2.60;;;;;;;26.92;4.57;98154.59;6370729;27;20047;-64
2022/03/17 09:55:50;;;;;;;6.68;3.33;;;;;;;26.12;5.02;98154.41;6371948;27;20043;-64
2022/03/17 09:58:57;;;;;;;6.38;3.67;;;;;;;26.08;4.66;98155.75;6371393;27;20050;-63
2022/03/17 10:02:03;;;;;;;5.45;3.22;;;;;;;25.36;5.28;98145.38;6370944;27;20054;-64
2022/03/17 10:05:11;;;;;;;6.38;2.65;;;;;;;25.37;5.13;98139.00;6370637;27;20132;-65
2022/03/17 10:08:23;;;;;;;5.90;2.92;;;;;;;25.40;5.12;98132.47;6371404;27;20051;-63
2022/03/17 10:11:26;;;;;;;5.13;2.45;;;;;;;25.51;5.12;98138.41;6371595;27;20062;-63
2022/03/17 10:14:54;;;;;;;;;;;;;;;26.47;5.01;98136.19;6352864;27;20424;-64
2022/03/17 10:17:55;;;;;;;5.55;2.50;;;;;;;24.21;5.70;98127.63;6366414;27;19919;-64
2022/03/17 10:21:15;;;;;;;5.82;2.13;;;;;;;24.33;5.54;98133.59;6370340;27;20432;-64
2022/03/17 10:24:16;;;;;;;5.05;2.30;;;;;;;24.11;5.58;98127.69;6370015;27;20559;-64
2022/03/17 10:27:45;;;;;;;5.20;2.72;;;;;;;23.93;6.16;98118.78;6351667;27;20039;-65
2022/03/17 10:30:48;;;;;;;6.63;3.17;;;;;;;23.32;6.18;98114.91;6370545;27;20055;-65
2022/03/17 10:33:54;;;;;;;7.78;3.10;;;;;;;22.54;6.47;98108.97;6371343;28;20043;-65
2022/03/17 10:37:23;;;;;;;5.40;2.78;;;;;;;21.39;6.98;98106.94;6371616;28;20043;-64
2022/03/17 10:40:30;;;;;;;6.32;3.88;;;;;;;20.03;7.34;98100.81;6370608;28;20055;-65
2022/03/17 10:43:39;;;;;;;7.63;3.80;;;;;;;19.14;7.57;98101.94;6371281;28;20521;-65
2022/03/17 10:47:01;;;;;;;5.75;4.25;;;;;;;19.42;7.83;98111.19;6371015;28;20047;-65
2022/03/17 10:50:16;;;;;;;8.73;4.35;;;;;;;19.46;7.76;98107.31;6370971;28;20070;-65
2022/03/17 10:53:28;;;;;;;13.18;5.70;;;;;;;19.86;8.28;98101.41;6369723;28;20130;-65
2022/03/17 10:56:30;;;;;;;8.60;5.38;;;;;;;20.04;8.10;98097.19;6369594;28;20054;-64
2022/03/17 10:59:37;;;;;;;9.05;5.10;;;;;;;19.36;8.11;98085.84;6370685;28;20051;-64
2022/03/17 11:02:40;;;;;;;6.60;4.40;;;;;;;17.97;8.57;98084.31;6370956;28;20039;-64
2022/03/17 11:05:49;;;;;;;5.88;3.92;;;;;;;18.02;8.50;98075.97;6371101;28;20126;-64
2022/03/17 11:08:54;;;;;;;7.07;3.70;;;;;;;18.29;8.79;98073.88;6369647;28;20488;-65
2022/03/17 11:11:56;;;;;;;7.60;3.38;;;;;;;18.01;8.49;98069.81;6369862;28;20047;-65
2022/03/17 11:15:01;;;;;;;9.13;4.80;;;;;;;17.93;8.76;98073.03;6369896;28;20424;-67
2022/03/17 11:18:16;;;;;;;8.30;3.83;;;;;;;17.84;8.67;98076.41;6370106;28;20100;-66
2022/03/17 11:21:27;;;;;;;6.20;3.53;;;;;;;17.18;9.02;98075.06;6369658;28;20043;-68
2022/03/17 11:24:28;;;;;;;6.00;3.67;;;;;;;16.10;9.62;98058.66;6370638;28;20385;-64
2022/03/17 11:27:48;;;;;;;8.82;3.78;;;;;;;15.12;9.97;98038.66;6369844;28;20051;-65
2022/03/17 11:30:58;;;;;;;8.07;4.30;;;;;;;15.10;9.91;98043.19;6352336;28;20049;-64
2022/03/17 11:33:59;;;;;;;6.30;3.80;;;;;;;14.73;10.35;98037.59;6370682;28;20057;-64
2022/03/17 11:37:19;;;;;;;10.77;4.60;;;;;;;13.95;11.37;98046.81;6370313;27;20489;-64
2022/03/17 11:40:26;;;;;;;7.65;4.20;;;;;;;13.62;11.08;98039.94;6375182;27;20043;-64
2022/03/17 11:43:45;;;;;;;8.05;3.90;;;;;;;13.87;10.91;98039.31;6375276;27;20043;-64
2022/03/17 11:46:49;;;;;;;4.57;3.38;;;;;;;13.81;11.00;98040.53;6375379;27;20047;-64
2022/03/17 11:49:52;;;;;;;8.48;4.45;;;;;;;13.74;11.27;98028.63;6375380;27;20039;-66
2022/03/17 11:53:11;;;;;;;14.55;8.05;;;;;;;13.42;11.51;98025.25;6374441;27;20047;-65
2022/03/17 11:56:31;;;;;;;13.55;7.05;;;;;;;13.45;11.48;98017.97;6374392;27;20054;-66
2022/03/17 11:59:58;;;;;;;9.73;5.30;;;;;;;13.17;11.34;98028.41;6373352;27;20051;-65
2022/03/17 12:03:09;;;;;;;7.50;4.35;;;;;;;12.67;12.10;98026.78;6373856;27;20047;-66
2022/03/17 12:06:19;;;;;;;8.97;5.23;;;;;;;12.29;12.22;98013.88;6374447;27;20043;-65
2022/03/17 12:09:32;;;;;;;11.43;5.60;;;;;;;11.72;12.81;98002.78;6374552;27;20046;-64
2022/03/17 12:12:36;;;;;;;7.70;5.07;;;;;;;11.02;13.07;97998.31;6374610;27;20393;-65
2022/03/17 12:15:49;;;;;;;8.00;4.82;;;;;;;10.42;13.38;97991.59;6373039;27;20047;-64
2022/03/17 12:19:03;;;;;;;7.45;4.38;;;;;;;9.39;14.00;97978.53;6374312;27;20042;-64
2022/03/17 12:22:19;;;;;;;6.65;4.55;;;;;;;8.60;14.40;97981.78;6355125;27;20051;-64
2022/03/17 12:25:22;;;;;;;14.75;7.85;;;;;;;8.18;14.76;97979.84;6373631;27;20131;-63
2022/03/17 12:28:23;;;;;;;12.23;6.67;;;;;;;8.79;14.35;97967.03;6372591;27;20091;-64
2022/03/17 12:31:33;;;;;;;12.10;6.82;;;;;;;7.82;14.88;97975.06;6373923;27;20047;-63
2022/03/17 12:34:42;;;;;;;10.30;5.85;;;;;;;6.43;15.60;97964.91;6354684;27;20512;-65
2022/03/17 12:37:49;;;;;;;14.60;6.88;;;;;;;5.47;16.19;97971.97;6373916;27;20054;-64
2022/03/17 12:40:50;;;;;;;12.52;6.78;;;;;;;4.95;16.84;97966.34;6354476;27;20051;-64
2022/03/17 12:43:55;;;;;;;33.38;16.35;;;;;;;4.73;17.12;97963.41;6372388;27;20047;-64
2022/03/17 12:47:03;;;;;;;11.80;6.82;;;;;;;4.33;17.31;97973.03;6373286;27;20045;-65
2022/03/17 12:50:28;;;;;;;19.23;7.57;;;;;;;3.92;17.77;97962.63;6371751;27;20526;-64
2022/03/17 12:53:31;;;;;;;14.60;7.15;;;;;;;3.62;17.59;97973.66;6372469;27;20059;-66
2022/03/17 12:56:53;;;;;;;16.80;8.57;;;;;;;3.40;17.68;97968.88;6372565;27;20043;-66
2022/03/17 12:59:55;;;;;;;14.57;8.10;;;;;;;3.05;18.48;97972.09;6354867;27;20043;-65
2022/03/17 13:03:00;;;;;;;15.73;7.82;;;;;;;2.63;18.68;97961.50;6372022;27;20046;-65
2022/03/17 13:09:31;;;;;;;15.40;8.93;;;;;;;2.02;19.28;97951.16;6372704;27;20168;-65
2022/03/17 13:16:00;;;;;;;15.48;9.40;;;;;;;1.28;19.87;97963.31;6372048;27;20055;-65
2022/03/17 13:19:05;;;;;;;14.32;7.50;;;;;;;0.79;20.37;97961.16;6371614;27;20047;-64
2022/03/17 13:22:06;;;;;;;;;;;;;;;0.38;19.43;97964.94;6372126;27;20061;-64
2022/03/17 13:25:10;;;;;;;9.98;4.57;;;;;;;-0.41;20.45;97968.81;6372069;27;19916;-65
2022/03/17 13:28:22;;;;;;;8.82;4.75;;;;;;;-1.31;21.31;97969.84;6372935;27;20035;-64
2022/03/17 13:31:57;;;;;;;10.52;4.63;;;;;;;-2.10;21.22;97972.31;6353847;27;20527;-65
2022/03/17 13:35:03;;;;;;;14.82;6.13;;;;;;;-2.88;22.19;97969.41;6353859;27;20043;-65
2022/03/17 13:38:33;;;;;;;11.82;6.57;;;;;;;-3.56;23.71;97967.22;6370898;27;20155;-65
2022/03/17 13:41:37;;;;;;;16.20;6.78;;;;;;;-4.03;22.69;97962.47;6367927;27;20053;-65
2022/03/17 13:45:01;;;;;;;19.70;6.95;;;;;;;-4.46;24.09;97969.72;6371891;27;20054;-64
2022/03/17 13:48:07;;;;;;;14.93;5.10;;;;;;;-4.83;23.43;97958.97;6371607;27;20130;-65
2022/03/17 13:51:13;;;;;;;16.98;7.30;;;;;;;-5.13;23.69;97967.97;6372154;27;20129;-65
2022/03/17 13:54:18;;;;;;;17.95;7.25;;;;;;;-5.49;23.50;97960.56;6371679;27;20046;-64
2022/03/17 13:57:25;;;;;;;19.75;7.10;;;;;;;-5.77;24.16;97969.53;6371009;27;20497;-64
2022/03/17 14:00:33;;;;;;;27.38;9.07;;;;;;;-6.03;24.92;97967.38;6370423;27;20066;-64
2022/03/17 14:03:43;;;;;;;23.80;7.85;;;;;;;-6.34;25.54;97961.72;6371163;27;20039;-65
2022/03/17 14:06:47;;;;;;;20.52;6.72;;;;;;;-6.64;24.69;97972.22;6371377;27;20138;-65
2022/03/17 14:09:48;;;;;;;30.23;9.38;;;;;;;-6.90;26.81;97958.88;6370917;27;20134;-64
2022/03/17 14:13:02;;;;;;;26.80;9.18;;;;;;;-6.98;26.75;97968.09;6353235;27;20466;-64
2022/03/17 14:16:04;;;;;;;21.02;8.70;;;;;;;-7.21;27.46;97965.03;6353387;27;20035;-65
2022/03/17 14:19:10;;;;;;;28.00;9.57;;;;;;;-7.35;27.47;97959.59;6371420;27;20047;-64
2022/03/17 14:25:33;;;;;;;31.02;9.88;;;;;;;-7.58;28.18;97964.19;6371362;27;20133;-64
2022/03/17 14:28:37;;;;;;;32.17;10.18;;;;;;;-7.73;28.17;97967.25;6371257;27;20043;-64
2022/03/17 14:31:40;;;;;;;33.55;11.88;;;;;;;-7.88;28.95;97976.22;6370231;27;20051;-65
2022/03/17 14:34:45;;;;;;;39.58;13.98;;;;;;;-8.05;29.23;97973.22;6371269;27;20039;-64
2022/03/17 14:37:53;;;;;;;45.72;15.00;;;;;;;-8.17;29.91;97984.84;6371306;27;20043;-64
2022/03/17 14:40:59;;;;;;;61.92;19.48;;;;;;;-8.35;29.76;97979.22;6370627;28;20051;-64
2022/03/17 14:44:03;;;;;;;61.95;22.17;;;;;;;-8.53;30.05;97973.69;6370120;28;20051;-64
2022/03/17 14:47:07;;;;;;;54.03;22.52;;;;;;;-8.67;29.71;97989.47;6371063;28;20043;-65
2022/03/17 14:50:09;;;;;;;65.28;24.15;;;;;;;-8.82;29.90;97991.59;6370548;28;20047;-64
2022/03/17 14:53:11;;;;;;;58.58;19.92;;;;;;;-8.96;30.14;97995.41;6370610;28;20058;-64